Time;durP1;ratioP1;P1;durP2;ratioP2;P2;SDS_P1;SDS_P2;PMS_P1;PMS_P2;Temp;Humidity;BMP_temperature;BMP_pressure;BME280_temperature;BME280_humidity;BME280_pressure;Samples;Min_cycle;Max_cycle;Signal;HPM_P1;HPM_P2
2022/12/01 08:04:32;;;;;;;11.57;7.20;;;4.30;91.90;;;;;;1939649;73;26390;-46
2022/12/01 08:07:02;;;;;;;12.50;8.80;;;4.30;91.90;;;;;;1922448;73;21090;-47
2022/12/01 08:09:31;;;;;;;10.75;7.30;;;4.30;92.30;;;;;;1924246;73;21144;-46
2022/12/01 08:12:00;;;;;;;13.98;7.17;;;4.40;92.50;;;;;;1922339;73;21124;-45
2022/12/01 08:14:30;;;;;;;12.40;7.45;;;4.40;92.10;;;;;;1923720;73;21042;-44
2022/12/01 08:16:59;;;;;;;10.98;6.03;;;4.50;92.30;;;;;;1929761;73;21093;-44
2022/12/01 08:19:28;;;;;;;8.58;6.00;;;4.60;91.80;;;;;;1947883;73;21078;-44
2022/12/01 08:21:57;;;;;;;18.87;8.03;;;4.60;91.80;;;;;;1931664;73;21010;-47
2022/12/01 08:24:26;;;;;;;14.15;7.17;;;4.70;92.00;;;;;;1916833;75;21011;-49
2022/12/01 08:26:55;;;;;;;14.47;8.98;;;4.70;91.40;;;;;;1917267;75;21505;-47
2022/12/01 08:29:24;;;;;;;12.60;8.40;;;4.70;91.80;;;;;;1919845;73;21169;-45
2022/12/01 08:31:54;;;;;;;16.57;8.53;;;4.70;91.90;;;;;;1919888;73;21143;-44
2022/12/01 08:34:28;;;;;;;13.25;8.50;;;4.80;92.10;;;;;;1923638;73;21070;-46
2022/12/01 08:37:07;;;;;;;13.70;6.25;;;4.80;92.10;;;;;;1919530;73;21012;-45
2022/12/01 08:39:44;;;;;;;11.43;7.08;;;4.90;91.80;;;;;;1915542;74;21046;-46
2022/12/01 08:42:18;;;;;;;;;;;4.90;91.70;;;;;;1919870;74;21544;-45
2022/12/01 08:44:49;;;;;;;6.33;5.15;;;5.00;92.00;;;;;;1916986;74;20472;-45
2022/12/01 08:47:18;;;;;;;11.00;7.10;;;5.00;91.70;;;;;;1917267;75;21027;-46
2022/12/01 08:49:47;;;;;;;20.97;12.30;;;5.10;91.70;;;;;;1917298;74;21088;-46
2022/12/01 08:52:17;;;;;;;12.37;8.35;;;5.10;91.70;;;;;;1881057;76;21101;-48
2022/12/01 08:54:46;;;;;;;14.63;6.70;;;5.20;91.50;;;;;;1865059;77;21091;-47
2022/12/01 08:57:15;;;;;;;10.03;7.15;;;5.20;91.10;;;;;;1862505;77;21031;-47
2022/12/01 08:59:44;;;;;;;15.20;8.15;;;5.20;91.30;;;;;;1850487;77;21321;-48
2022/12/01 09:02:21;;;;;;;13.15;8.60;;;5.20;91.30;;;;;;1850300;77;21088;-48
2022/12/01 09:04:52;;;;;;;9.78;4.87;;;5.30;91.10;;;;;;1834291;77;21084;-49
2022/12/01 09:07:21;;;;;;;7.20;5.58;;;5.30;91.10;;;;;;1894160;76;21050;-47
2022/12/01 09:09:51;;;;;;;13.48;7.10;;;5.30;90.90;;;;;;1898732;74;21030;-47
2022/12/01 09:12:21;;;;;;;11.88;6.35;;;5.30;91.10;;;;;;1919455;74;20971;-46
2022/12/01 09:14:50;;;;;;;13.80;7.97;;;5.40;91.10;;;;;;1909629;74;21031;-47
2022/12/01 09:17:19;;;;;;;16.95;9.35;;;5.40;91.20;;;;;;1907426;74;21071;-45
2022/12/01 09:19:48;;;;;;;25.10;9.33;;;5.40;91.40;;;;;;1909756;74;21073;-46
2022/12/01 09:22:17;;;;;;;9.05;4.30;;;5.50;91.50;;;;;;1910993;74;21071;-46
2022/12/01 09:24:46;;;;;;;10.40;4.92;;;5.60;91.00;;;;;;1830475;78;21084;-48
2022/12/01 09:27:15;;;;;;;8.00;5.20;;;5.60;91.10;;;;;;1895071;74;21040;-45
2022/12/01 09:29:44;;;;;;;11.35;4.83;;;5.60;91.00;;;;;;1912360;74;21069;-45
2022/12/01 09:32:13;;;;;;;7.35;4.33;;;5.70;91.00;;;;;;1924988;74;21156;-47
2022/12/01 09:34:42;;;;;;;12.07;6.50;;;5.70;90.60;;;;;;1926757;74;21074;-45
2022/12/01 09:37:12;;;;;;;9.35;4.33;;;5.80;90.70;;;;;;1926617;74;21073;-47
2022/12/01 09:39:41;;;;;;;8.35;3.87;;;5.80;90.80;;;;;;1914403;74;21099;-46
2022/12/01 09:42:13;;;;;;;11.68;5.97;;;5.90;90.50;;;;;;1908918;74;21528;-47
2022/12/01 09:44:44;;;;;;;5.55;3.33;;;5.90;90.80;;;;;;1893277;76;21076;-48
2022/12/01 09:47:31;;;;;;;7.75;4.05;;;6.00;90.60;;;;;;1848697;76;21193;-46
2022/12/01 09:50:09;;;;;;;9.28;4.53;;;6.10;90.60;;;;;;1893372;76;21163;-45
2022/12/01 09:52:46;;;;;;;6.78;3.45;;;6.10;90.40;;;;;;1848776;77;21096;-45
2022/12/01 09:55:17;;;;;;;9.85;4.28;;;6.20;89.80;;;;;;1893171;76;21069;-47
2022/12/01 09:57:55;;;;;;;6.95;3.67;;;6.20;89.50;;;;;;1876893;76;21143;-47
2022/12/01 10:00:27;;;;;;;3.40;2.52;;;6.30;89.10;;;;;;1880230;76;21061;-49
2022/12/01 10:03:10;;;;;;;7.05;4.00;;;6.30;88.60;;;;;;1879864;75;21081;-49
2022/12/01 10:05:45;;;;;;;4.80;3.12;;;6.40;88.90;;;;;;1875565;76;21085;-50
2022/12/01 10:08:18;;;;;;;;;;;6.40;89.20;;;;;;1845178;77;21080;-49
2022/12/01 10:10:49;;;;;;;5.97;4.12;;;6.50;87.80;;;;;;1853274;76;20144;-48
2022/12/01 10:13:24;;;;;;;6.15;4.00;;;6.50;89.30;;;;;;1829692;78;21151;-48
2022/12/01 10:15:56;;;;;;;9.83;5.40;;;6.60;87.40;;;;;;1908153;74;21066;-48
2022/12/01 10:18:42;;;;;;;9.00;4.20;;;6.60;87.80;;;;;;1831530;77;21046;-48
2022/12/01 10:21:32;;;;;;;10.08;4.58;;;6.60;88.10;;;;;;1908378;74;21493;-48
2022/12/01 10:24:10;;;;;;;7.00;4.10;;;6.70;88.30;;;;;;1911474;74;20999;-52
2022/12/01 10:26:50;;;;;;;10.35;4.78;;;6.70;87.70;;;;;;1882353;74;21027;-47
2022/12/01 10:29:28;;;;;;;22.13;6.17;;;6.70;88.10;;;;;;1915172;74;21036;-48
2022/12/01 10:32:00;;;;;;;7.60;4.03;;;6.80;88.50;;;;;;1900837;74;21153;-44
2022/12/01 10:34:34;;;;;;;6.90;4.12;;;6.90;88.00;;;;;;1904984;74;21481;-47
2022/12/01 10:37:03;;;;;;;6.30;3.45;;;6.90;88.80;;;;;;1910686;74;21445;-45
2022/12/01 10:39:38;;;;;;;7.50;4.28;;;7.00;87.40;;;;;;1909609;74;21072;-45
2022/12/01 10:42:08;;;;;;;;;;;7.00;87.60;;;;;;1913577;74;21125;-47
2022/12/01 10:44:39;;;;;;;8.05;4.35;;;7.00;86.00;;;;;;1897428;74;20137;-47
2022/12/01 10:47:22;;;;;;;6.65;3.80;;;7.10;87.40;;;;;;1893385;75;21073;-46
2022/12/01 10:49:52;;;;;;;3.85;2.77;;;7.10;87.30;;;;;;1893616;76;21458;-46
2022/12/01 10:52:38;;;;;;;5.85;3.25;;;7.20;85.70;;;;;;1893577;76;21020;-49
2022/12/01 10:55:28;;;;;;;10.38;5.03;;;7.20;86.50;;;;;;1910568;74;21221;-46
2022/12/01 10:58:00;;;;;;;11.48;4.90;;;7.30;88.10;;;;;;1893481;76;21039;-46
2022/12/01 11:00:35;;;;;;;6.33;4.08;;;7.30;85.80;;;;;;1895726;74;21125;-44
2022/12/01 11:03:06;;;;;;;9.38;3.85;;;7.40;85.40;;;;;;1924738;74;21468;-47
2022/12/01 11:05:38;;;;;;;4.67;3.25;;;7.40;86.10;;;;;;1922065;74;21035;-44
2022/12/01 11:08:08;;;;;;;11.57;4.83;;;7.40;85.40;;;;;;1920589;74;21110;-44
2022/12/01 11:10:38;;;;;;;5.22;3.22;;;7.30;86.10;;;;;;1944897;74;21135;-44
2022/12/01 11:13:24;;;;;;;4.40;2.90;;;7.40;86.50;;;;;;1947701;74;21528;-45
2022/12/01 11:15:56;;;;;;;2.77;2.37;;;7.40;85.00;;;;;;1947463;74;21014;-46
2022/12/01 11:18:36;;;;;;;4.05;2.83;;;7.40;84.80;;;;;;1947374;73;21143;-45
2022/12/01 11:21:11;;;;;;;5.03;3.20;;;7.40;85.10;;;;;;1946408;74;21019;-47
2022/12/01 11:23:45;;;;;;;7.78;4.80;;;7.40;85.20;;;;;;1947663;73;21523;-49
2022/12/01 11:26:25;;;;;;;4.22;2.58;;;7.40;85.20;;;;;;1945688;74;21070;-49
2022/12/01 11:29:00;;;;;;;5.47;2.58;;;7.40;84.30;;;;;;1947600;74;21074;-47
2022/12/01 11:31:41;;;;;;;11.68;3.95;;;7.40;84.50;;;;;;1946936;74;21019;-45
2022/12/01 11:34:24;;;;;;;5.45;3.40;;;7.50;84.90;;;;;;1947672;74;21135;-46
2022/12/01 11:36:56;;;;;;;5.10;3.42;;;7.50;84.90;;;;;;1947694;74;21078;-46
2022/12/01 11:39:30;;;;;;;42.27;22.70;;;7.40;84.90;;;;;;1946189;74;21092;-44
2022/12/01 11:42:04;;;;;;;23.02;15.85;;;7.40;86.00;;;;;;1948005;74;21408;-47
2022/12/01 11:44:35;;;;;;;31.70;14.68;;;7.50;86.20;;;;;;1947268;73;21175;-45
2022/12/01 11:47:15;;;;;;;20.40;11.03;;;7.50;86.20;;;;;;1947890;73;21062;-45
2022/12/01 11:49:47;;;;;;;10.43;5.25;;;7.50;85.30;;;;;;1947537;74;21131;-45
2022/12/01 11:52:31;;;;;;;5.60;3.83;;;7.50;85.40;;;;;;1947963;74;21094;-47
2022/12/01 11:55:15;;;;;;;5.12;3.08;;;7.50;85.30;;;;;;1947985;74;21065;-56
2022/12/01 11:57:46;;;;;;;9.35;5.05;;;7.50;85.30;;;;;;1947961;74;21074;-55
2022/12/01 12:00:21;;;;;;;13.93;5.75;;;7.50;85.60;;;;;;1947819;74;21085;-58
2022/12/01 12:02:58;;;;;;;14.95;5.15;;;7.50;86.00;;;;;;1948031;74;21027;-57
2022/12/01 12:05:45;;;;;;;8.88;5.53;;;7.50;85.70;;;;;;1948487;73;21066;-55
2022/12/01 12:08:38;;;;;;;19.12;13.15;;;7.50;85.80;;;;;;1947928;74;21115;-60
2022/12/01 12:19:09;;;;;;;17.23;7.58;;;7.60;85.00;;;;;;1959230;73;25632;-64
2022/12/01 13:14:40;;;;;;;16.40;9.78;;;7.40;86.80;;;;;;1959059;73;25410;-58
2022/12/01 13:17:22;;;;;;;20.45;13.15;;;7.40;87.60;;;;;;1918565;75;21419;-58
2022/12/01 13:19:51;;;;;;;21.42;8.63;;;7.40;87.80;;;;;;1918050;74;21121;-59
2022/12/01 13:22:23;;;;;;;15.78;8.63;;;7.40;87.80;;;;;;1918415;75;21007;-58
2022/12/01 13:24:52;;;;;;;17.55;10.53;;;7.40;87.90;;;;;;1918484;75;21489;-64
2022/12/01 13:27:23;;;;;;;18.73;9.70;;;7.40;88.10;;;;;;1918466;75;21442;-60
2022/12/01 13:29:54;;;;;;;20.50;10.43;;;7.40;88.30;;;;;;1918464;75;20995;-59
2022/12/01 13:35:34;;;;;;;30.20;14.45;;;7.40;88.50;;;;;;1950668;72;20984;-59
2022/12/01 13:38:23;;;;;;;28.38;15.90;;;7.40;88.80;;;;;;1950848;73;21020;-58
2022/12/01 16:30:30;;;;;;;23.02;11.48;;;5.70;90.60;;;;;;1959108;73;25832;-50
2022/12/01 16:33:05;;;;;;;28.73;11.75;;;5.70;90.80;;;;;;1918247;74;21027;-52
2022/12/01 16:35:34;;;;;;;23.85;12.00;;;5.70;90.80;;;;;;1917701;74;21097;-51
2022/12/01 16:38:06;;;;;;;21.57;12.37;;;5.60;90.90;;;;;;1918428;75;21089;-53
2022/12/01 16:40:35;;;;;;;25.50;13.70;;;5.60;91.00;;;;;;1912712;74;21473;-52
2022/12/01 16:43:04;;;;;;;19.37;11.57;;;5.60;91.00;;;;;;1918439;75;21019;-50
2022/12/01 16:45:33;;;;;;;19.02;9.80;;;5.60;91.00;;;;;;1918447;75;21003;-53
2022/12/01 16:48:02;;;;;;;22.32;11.18;;;5.60;91.10;;;;;;1918469;74;21019;-53
2022/12/01 16:50:31;;;;;;;16.23;10.50;;;5.60;91.10;;;;;;1918415;74;21015;-53
2022/12/01 16:53:00;;;;;;;16.20;8.98;;;5.60;91.10;;;;;;1918461;75;21116;-53
2022/12/01 16:55:53;;;;;;;20.20;10.63;;;5.60;91.10;;;;;;1918386;74;21023;-53
2022/12/01 16:58:23;;;;;;;18.15;9.93;;;5.50;91.10;;;;;;1918296;75;21015;-52
2022/12/01 17:00:52;;;;;;;16.20;9.13;;;5.50;91.20;;;;;;1918326;75;21023;-54
2022/12/01 17:03:23;;;;;;;16.48;8.88;;;5.50;91.20;;;;;;1918362;75;21014;-53
2022/12/01 17:05:54;;;;;;;18.10;8.15;;;5.50;91.20;;;;;;1917514;74;21019;-53
2022/12/01 17:08:23;;;;;;;10.10;7.15;;;5.40;91.30;;;;;;1918337;75;21019;-52
2022/12/01 17:10:52;;;;;;;13.93;7.12;;;5.40;91.30;;;;;;1918375;75;21031;-52
2022/12/01 17:13:22;;;;;;;12.80;7.40;;;5.40;91.30;;;;;;1918444;75;21469;-53
2022/12/01 17:15:54;;;;;;;13.55;6.33;;;5.40;91.30;;;;;;1918559;75;21089;-50
2022/12/01 17:18:23;;;;;;;11.53;6.90;;;5.40;91.30;;;;;;1918405;75;20999;-53
2022/12/01 17:20:58;;;;;;;9.58;6.80;;;5.40;91.30;;;;;;1918585;75;21092;-53
2022/12/01 17:23:28;;;;;;;11.90;6.58;;;5.40;91.30;;;;;;1918574;75;21039;-52
2022/12/01 17:25:57;;;;;;;12.80;6.45;;;5.30;91.30;;;;;;1918450;75;21069;-51
2022/12/01 17:28:26;;;;;;;7.90;6.03;;;5.40;91.40;;;;;;1918453;74;20987;-51
2022/12/01 17:30:56;;;;;;;9.35;5.40;;;5.30;91.40;;;;;;1906822;75;21019;-52
2022/12/01 17:33:25;;;;;;;6.97;4.78;;;5.30;91.40;;;;;;1905932;75;21043;-50
2022/12/01 17:35:54;;;;;;;17.15;5.70;;;5.30;91.40;;;;;;1906106;75;21085;-53
2022/12/01 17:38:23;;;;;;;10.82;5.80;;;5.30;91.50;;;;;;1905989;75;21089;-52
2022/12/01 17:41:04;;;;;;;10.80;6.00;;;5.30;91.40;;;;;;1905542;74;21090;-53
2022/12/01 17:43:36;;;;;;;9.43;5.55;;;5.20;91.40;;;;;;1904644;74;21457;-53
2022/12/01 17:46:07;;;;;;;6.28;4.85;;;5.20;91.50;;;;;;1892581;75;21117;-52
2022/12/01 17:48:42;;;;;;;9.40;5.28;;;5.20;91.50;;;;;;1905342;75;21019;-53
2022/12/01 17:51:12;;;;;;;8.43;5.30;;;5.20;91.40;;;;;;1905497;75;21055;-49
2022/12/01 17:53:41;;;;;;;6.75;4.50;;;5.20;91.50;;;;;;1905428;74;21024;-53
2022/12/01 17:56:12;;;;;;;9.45;3.98;;;5.20;91.50;;;;;;1905392;75;21144;-54
2022/12/01 17:58:42;;;;;;;5.47;4.47;;;5.20;91.50;;;;;;1905340;75;21121;-51
2022/12/01 18:01:16;;;;;;;6.25;4.53;;;5.20;91.50;;;;;;1905444;75;21133;-50
2022/12/01 18:03:46;;;;;;;7.67;5.75;;;5.20;91.60;;;;;;1905532;75;21081;-52
2022/12/01 18:06:17;;;;;;;6.17;4.40;;;5.20;91.50;;;;;;1905350;75;21085;-53
2022/12/01 18:08:47;;;;;;;8.55;4.65;;;5.20;91.50;;;;;;1905390;74;21127;-50
2022/12/01 18:11:17;;;;;;;7.83;5.05;;;5.20;91.60;;;;;;1905350;74;21418;-52
2022/12/01 18:13:48;;;;;;;7.12;4.65;;;5.20;91.60;;;;;;1905341;75;21015;-53
2022/12/01 18:16:19;;;;;;;7.20;4.70;;;5.20;91.70;;;;;;1905328;75;21015;-53
2022/12/01 18:18:49;;;;;;;9.88;4.90;;;5.20;91.80;;;;;;1905431;74;21084;-54
2022/12/01 18:21:21;;;;;;;8.75;5.28;;;5.30;91.70;;;;;;1905335;75;21106;-52
2022/12/01 18:23:56;;;;;;;7.28;4.30;;;5.30;91.70;;;;;;1905476;75;21024;-53
2022/12/01 18:26:26;;;;;;;5.15;4.33;;;5.30;91.70;;;;;;1905408;74;21027;-51
2022/12/01 18:28:58;;;;;;;5.35;4.12;;;5.30;91.70;;;;;;1905350;75;21012;-49
2022/12/01 18:31:29;;;;;;;7.33;4.90;;;5.40;91.70;;;;;;1921972;74;21617;-53
2022/12/01 18:34:05;;;;;;;10.85;5.30;;;5.30;91.70;;;;;;1924877;74;21072;-51
2022/12/01 18:36:32;;;;;;;7.67;4.62;;;5.40;91.60;;;;;;1923663;74;21096;-52
2022/12/01 18:39:02;;;;;;;7.30;5.17;;;5.30;91.30;;;;;;1924741;74;21046;-53
2022/12/01 18:41:31;;;;;;;6.08;4.62;;;5.20;91.40;;;;;;1924701;74;21061;-53
2022/12/01 18:44:00;;;;;;;9.83;4.92;;;5.10;91.50;;;;;;1924690;74;21089;-52
2022/12/01 18:46:29;;;;;;;6.85;4.10;;;5.10;91.60;;;;;;1924696;74;21030;-53
2022/12/01 18:49:01;;;;;;;10.90;5.58;;;5.00;91.70;;;;;;1924826;74;20999;-50
2022/12/01 18:51:32;;;;;;;11.33;6.78;;;5.00;91.70;;;;;;1924754;74;21415;-53
2022/12/01 18:54:03;;;;;;;10.82;6.97;;;5.00;91.90;;;;;;1924725;74;21123;-50
2022/12/01 18:56:32;;;;;;;8.75;6.17;;;5.00;91.90;;;;;;1924692;74;21062;-52
2022/12/01 18:59:05;;;;;;;13.05;5.35;;;5.00;91.80;;;;;;1924732;74;21046;-50
2022/12/01 19:01:37;;;;;;;8.43;4.75;;;5.00;91.80;;;;;;1924885;74;21011;-53
2022/12/01 19:04:08;;;;;;;13.55;5.65;;;4.90;91.80;;;;;;1924002;74;21096;-51
2022/12/01 19:06:39;;;;;;;6.70;4.83;;;4.80;91.70;;;;;;1904405;74;21014;-53
2022/12/01 19:09:10;;;;;;;5.90;4.60;;;4.80;91.80;;;;;;1924670;74;21010;-50
2022/12/01 19:11:39;;;;;;;8.88;4.90;;;4.70;91.90;;;;;;1924760;74;21023;-51
2022/12/01 19:14:11;;;;;;;8.48;5.28;;;4.60;92.00;;;;;;1924678;74;21068;-53
2022/12/01 19:16:41;;;;;;;8.98;4.75;;;4.60;92.00;;;;;;1924532;74;21862;-52
2022/12/01 19:19:11;;;;;;;6.42;4.70;;;4.50;92.10;;;;;;1924669;74;21023;-50
2022/12/01 19:21:41;;;;;;;4.72;3.85;;;4.50;92.10;;;;;;1924682;74;21081;-51
2022/12/01 19:24:11;;;;;;;6.25;4.50;;;4.50;92.10;;;;;;1924678;74;21024;-53
2022/12/01 19:26:40;;;;;;;7.62;4.33;;;4.50;92.20;;;;;;1924697;74;21022;-50
2022/12/01 19:29:09;;;;;;;4.72;3.80;;;4.50;92.10;;;;;;1924661;74;21018;-53
2022/12/01 19:31:38;;;;;;;6.60;4.35;;;4.60;92.20;;;;;;1924736;74;21058;-53
2022/12/01 19:34:08;;;;;;;5.25;3.77;;;4.60;92.20;;;;;;1924731;74;21021;-55
2022/12/01 19:36:37;;;;;;;8.50;4.47;;;4.60;92.10;;;;;;1924726;73;21068;-53
2022/12/01 19:39:07;;;;;;;5.03;4.53;;;4.60;92.10;;;;;;1924725;74;21026;-54
2022/12/01 19:41:38;;;;;;;7.47;4.33;;;4.70;92.10;;;;;;1924754;74;21046;-54
2022/12/01 19:44:08;;;;;;;7.00;4.53;;;4.70;92.10;;;;;;1924686;74;21011;-53
2022/12/01 19:46:37;;;;;;;6.90;4.92;;;4.60;92.10;;;;;;1924747;74;21015;-53
2022/12/01 19:49:07;;;;;;;14.65;4.05;;;4.60;92.10;;;;;;1924891;74;21050;-53
2022/12/01 19:51:38;;;;;;;4.80;3.27;;;4.70;92.20;;;;;;1924503;74;21006;-53
2022/12/01 19:54:15;;;;;;;10.63;4.50;;;4.70;92.20;;;;;;1924549;74;21080;-52
2022/12/01 19:56:45;;;;;;;5.72;4.28;;;4.80;92.30;;;;;;1924563;74;21544;-53
2022/12/01 19:59:14;;;;;;;5.25;4.05;;;4.90;92.30;;;;;;1924518;74;20998;-53
2022/12/01 20:01:43;;;;;;;6.40;4.10;;;4.90;92.30;;;;;;1924641;74;21035;-53
2022/12/01 20:04:12;;;;;;;7.87;3.77;;;5.00;92.00;;;;;;1924644;74;21058;-53
2022/12/01 20:06:42;;;;;;;5.22;3.85;;;5.00;92.10;;;;;;1924564;74;21042;-52
2022/12/01 20:09:11;;;;;;;5.92;3.87;;;5.00;92.10;;;;;;1924698;74;21019;-50
2022/12/01 20:11:40;;;;;;;4.80;3.90;;;5.00;92.10;;;;;;1924519;74;21070;-53
2022/12/01 20:14:10;;;;;;;6.70;4.15;;;5.00;92.10;;;;;;1924560;74;21011;-53
2022/12/01 20:16:40;;;;;;;6.47;4.70;;;5.00;92.10;;;;;;1924619;74;21070;-52
2022/12/01 20:19:09;;;;;;;5.58;4.03;;;5.00;92.10;;;;;;1924582;74;21010;-53
2022/12/01 20:21:42;;;;;;;5.62;4.08;;;5.00;92.10;;;;;;1924583;74;21112;-51
2022/12/01 20:24:14;;;;;;;9.35;4.65;;;5.10;92.20;;;;;;1924674;74;21125;-53
2022/12/01 20:26:46;;;;;;;6.53;4.22;;;5.10;92.10;;;;;;1924631;74;21015;-52
2022/12/01 20:29:17;;;;;;;10.08;5.83;;;5.10;92.20;;;;;;1924593;74;20995;-53
2022/12/01 20:31:47;;;;;;;8.93;4.97;;;5.20;92.10;;;;;;1915491;74;21494;-52
2022/12/01 20:34:19;;;;;;;8.75;5.90;;;5.10;92.10;;;;;;1905232;74;21095;-53
2022/12/01 20:36:48;;;;;;;5.90;4.97;;;5.10;92.10;;;;;;1905358;75;21145;-53
2022/12/01 20:39:17;;;;;;;7.58;4.67;;;5.10;92.10;;;;;;1905432;75;21012;-53
2022/12/01 20:41:47;;;;;;;5.47;4.20;;;5.10;92.20;;;;;;1905319;75;21528;-53
2022/12/01 20:44:16;;;;;;;7.70;4.90;;;5.10;92.20;;;;;;1905325;74;21004;-53
2022/12/01 20:46:46;;;;;;;8.35;5.08;;;5.20;92.20;;;;;;1905352;75;21024;-53
2022/12/01 20:49:17;;;;;;;7.85;4.60;;;5.20;92.20;;;;;;1905288;75;21008;-51
2022/12/01 20:51:46;;;;;;;6.50;4.85;;;5.20;92.20;;;;;;1905432;75;21015;-50
2022/12/01 20:54:17;;;;;;;6.95;4.12;;;5.20;92.20;;;;;;1905308;75;21510;-53
2022/12/01 20:56:46;;;;;;;6.75;3.70;;;5.20;92.20;;;;;;1905313;75;21066;-52
2022/12/01 20:59:15;;;;;;;8.38;4.10;;;5.30;92.20;;;;;;1905404;75;21093;-54
2022/12/01 21:01:44;;;;;;;5.65;4.15;;;5.30;92.30;;;;;;1905260;75;21007;-52
2022/12/01 21:04:13;;;;;;;8.20;4.70;;;5.30;92.20;;;;;;1905294;75;21464;-52
2022/12/01 21:06:42;;;;;;;9.53;5.58;;;5.30;91.80;;;;;;1905416;75;21059;-52
2022/12/01 21:09:12;;;;;;;6.10;4.78;;;5.20;92.00;;;;;;1905287;74;21077;-51
2022/12/01 21:14:51;;;;;;;9.88;4.67;;;5.20;92.20;;;;;;1905377;75;21011;-50
2022/12/01 21:17:34;;;;;;;12.40;5.00;;;5.20;92.20;;;;;;1904699;74;21027;-52
2022/12/01 21:20:11;;;;;;;11.20;4.60;;;5.20;92.30;;;;;;1905324;75;21065;-51
2022/12/01 21:22:40;;;;;;;9.73;5.78;;;5.20;92.30;;;;;;1905335;75;21164;-50
2022/12/01 21:25:15;;;;;;;6.37;4.67;;;5.20;92.20;;;;;;1905403;75;21043;-53
2022/12/01 21:27:44;;;;;;;7.67;3.98;;;5.20;92.10;;;;;;1905414;74;21031;-52
2022/12/01 21:30:24;;;;;;;9.25;4.90;;;5.20;92.10;;;;;;1905304;74;21077;-49
2022/12/01 21:32:53;;;;;;;5.45;4.17;;;5.20;92.10;;;;;;1905172;74;21055;-53
2022/12/01 21:35:24;;;;;;;8.23;4.87;;;5.10;92.10;;;;;;1905412;75;21031;-52
2022/12/01 21:38:02;;;;;;;8.03;4.55;;;5.00;92.20;;;;;;1905454;75;21031;-52
2022/12/01 21:40:31;;;;;;;11.57;5.05;;;5.00;92.20;;;;;;1905433;74;21498;-54
2022/12/01 21:43:03;;;;;;;11.10;4.95;;;5.00;92.10;;;;;;1905341;75;21081;-51
2022/12/01 21:45:32;;;;;;;6.22;4.33;;;5.00;92.20;;;;;;1903086;74;21560;-53
2022/12/01 21:48:21;;;;;;;11.28;4.70;;;5.00;92.10;;;;;;1905477;74;21000;-50
2022/12/01 21:50:53;;;;;;;11.38;5.85;;;5.00;92.20;;;;;;1905346;75;21031;-51
2022/12/01 21:53:24;;;;;;;10.35;6.20;;;4.90;92.30;;;;;;1903971;74;21446;-51
2022/12/01 21:55:54;;;;;;;12.20;6.72;;;4.90;92.30;;;;;;1905315;75;21039;-53
2022/12/01 21:58:33;;;;;;;9.38;6.08;;;5.00;92.40;;;;;;1905322;75;21510;-53
2022/12/01 22:00:58;;;;;;;13.40;8.55;;;5.00;92.30;;;;;;1904286;74;20991;-53
2022/12/01 22:03:32;;;;;;;16.70;10.25;;;5.00;92.30;;;;;;1905351;75;21073;-53
2022/12/01 22:06:16;;;;;;;16.45;9.53;;;5.00;92.20;;;;;;1904209;74;21539;-53
2022/12/01 22:08:47;;;;;;;23.57;10.95;;;4.90;92.30;;;;;;1905097;74;21141;-54
2022/12/01 22:11:21;;;;;;;18.82;11.30;;;4.90;92.30;;;;;;1905371;75;21527;-53
2022/12/01 22:14:02;;;;;;;19.42;10.60;;;4.90;92.20;;;;;;1905743;75;21015;-51
2022/12/01 22:16:33;;;;;;;25.40;11.68;;;4.90;92.40;;;;;;1905386;74;21043;-52
2022/12/01 22:19:17;;;;;;;19.20;9.83;;;4.90;92.40;;;;;;1905405;75;21024;-53
2022/12/01 22:21:47;;;;;;;21.52;10.60;;;4.90;92.40;;;;;;1893794;75;21031;-53
2022/12/01 22:24:22;;;;;;;22.90;10.03;;;4.90;92.40;;;;;;1905379;75;21182;-53
2022/12/01 22:26:54;;;;;;;18.98;10.32;;;4.90;92.50;;;;;;1899092;74;21063;-50
2022/12/01 22:29:31;;;;;;;28.07;11.60;;;4.90;92.40;;;;;;1905299;75;21207;-51
2022/12/01 22:32:15;;;;;;;31.33;12.85;;;4.90;92.40;;;;;;1905183;74;21019;-53
2022/12/01 22:34:52;;;;;;;18.25;11.18;;;4.90;92.50;;;;;;1905293;75;21113;-52
2022/12/01 22:37:24;;;;;;;16.50;11.18;;;4.90;92.50;;;;;;1905440;75;21023;-52
2022/12/01 22:39:55;;;;;;;26.45;9.80;;;4.90;92.20;;;;;;1905296;75;21061;-50
2022/12/01 22:42:30;;;;;;;35.92;11.50;;;4.80;92.00;;;;;;1905368;74;21132;-50
2022/12/01 22:45:18;;;;;;;21.60;10.08;;;4.70;92.30;;;;;;1904879;75;21555;-54
2022/12/01 22:47:47;;;;;;;16.77;10.28;;;4.70;92.30;;;;;;1905325;75;21114;-50
2022/12/01 22:50:28;;;;;;;22.85;10.48;;;4.70;92.40;;;;;;1905276;75;21019;-52
2022/12/01 22:53:12;;;;;;;15.72;8.80;;;4.60;92.30;;;;;;1902374;74;21114;-51
2022/12/01 22:55:41;;;;;;;15.40;10.00;;;4.60;92.40;;;;;;1905285;75;21011;-51
2022/12/01 22:58:22;;;;;;;22.07;10.88;;;4.60;92.20;;;;;;1905416;75;21040;-53
2022/12/01 23:00:53;;;;;;;19.15;11.38;;;4.60;92.30;;;;;;1905302;75;21438;-51
2022/12/01 23:03:22;;;;;;;23.10;11.50;;;4.50;92.30;;;;;;1905291;75;21145;-51
2022/12/01 23:05:54;;;;;;;20.00;11.90;;;4.50;92.30;;;;;;1905284;75;21019;-50
2022/12/01 23:08:23;;;;;;;23.52;11.80;;;4.40;92.30;;;;;;1905378;75;21117;-53
2022/12/01 23:10:52;;;;;;;17.20;11.00;;;4.40;92.30;;;;;;1905371;74;21055;-50
2022/12/01 23:13:23;;;;;;;16.37;10.25;;;4.40;92.30;;;;;;1905237;75;21074;-49
2022/12/01 23:15:53;;;;;;;25.88;12.50;;;4.40;92.40;;;;;;1905330;75;21047;-52
2022/12/01 23:18:25;;;;;;;29.45;13.72;;;4.40;92.50;;;;;;1905285;74;21124;-50
2022/12/01 23:20:56;;;;;;;26.60;13.45;;;4.40;92.50;;;;;;1905387;75;21104;-50
2022/12/01 23:23:30;;;;;;;29.45;13.78;;;4.50;92.40;;;;;;1905185;74;21084;-49
2022/12/01 23:26:04;;;;;;;21.77;10.98;;;4.40;92.40;;;;;;1905334;74;21063;-49
2022/12/01 23:28:35;;;;;;;21.17;10.98;;;4.40;92.70;;;;;;1905263;75;21125;-50
2022/12/01 23:31:04;;;;;;;19.95;10.38;;;4.40;92.40;;;;;;1905290;74;21160;-50
2022/12/01 23:33:34;;;;;;;26.60;10.90;;;4.40;92.40;;;;;;1905249;74;21051;-50
2022/12/01 23:36:18;;;;;;;26.07;11.38;;;4.40;92.50;;;;;;1905231;74;21004;-52
2022/12/01 23:38:50;;;;;;;18.57;9.30;;;4.40;92.80;;;;;;1905258;74;21000;-51
2022/12/01 23:41:44;;;;;;;14.47;8.38;;;4.50;92.50;;;;;;1905402;75;20995;-52
2022/12/01 23:44:37;;;;;;;16.90;8.28;;;4.50;92.50;;;;;;1905348;75;21083;-49
2022/12/01 23:47:09;;;;;;;15.95;7.85;;;4.50;92.50;;;;;;1905400;74;20995;-52
2022/12/01 23:49:39;;;;;;;14.20;6.85;;;4.50;92.50;;;;;;1904696;74;21023;-53
2022/12/01 23:52:11;;;;;;;13.78;8.00;;;4.50;92.50;;;;;;1905270;75;21078;-52
2022/12/01 23:54:40;;;;;;;13.05;7.53;;;4.50;92.40;;;;;;1905262;75;21458;-49
2022/12/01 23:57:23;;;;;;;17.02;8.50;;;4.50;92.20;;;;;;1905290;75;21015;-52
2022/12/01 23:59:54;;;;;;;12.03;7.22;;;4.40;92.20;;;;;;1905272;75;21035;-50
